.
WxDataArchive / Data Records for 2014-06-23
2014-06-22 June 2014 2014-06-24

Data Records for Monday, 23 June 2014

Time	Temp	Chill	HIndex	Humid	Dewpt	 Wind 	HiWind	WindDir	Rain 	Barom
-----	----	-----	------	-----	-----	------	------	-------	-----	-----
00:00	71.3	71.3	71.3	79	64.4	0	1	68	0.00	29.855 
00:05	71.3	71.3	71.3	79	64.4	0	1	68	0.00	29.855 
00:10	71.1	71.1	71.1	79	64.2	0	2	68	0.00	29.855 
00:15	70.9	70.9	70.9	79	64.1	0	2	68	0.00	29.855 
00:20	70.9	70.9	70.9	79	64.1	0	1	68	0.00	29.855 
00:25	70.8	70.8	70.8	79	64.0	0	2	68	0.00	29.855 
00:30	70.8	70.8	70.8	79	64.0	1	3	68	0.00	29.857 
00:35	70.8	70.8	70.8	79	64.0	0	1	68	0.00	29.857 
00:40	70.6	70.6	70.6	79	63.8	0	2	68	0.00	29.857 
00:45	70.4	70.4	70.4	79	63.6	0	1	68	0.00	29.855 
00:50	70.4	70.4	70.4	80	63.9	0	1	68	0.00	29.855 
00:55	70.3	70.3	70.3	80	63.8	0	2	68	0.00	29.855 
01:00	70.3	70.3	70.3	80	63.8	0	2	68	0.00	29.857 
01:05	70.1	70.1	70.1	80	63.6	0	2	68	0.00	29.857 
01:10	70.1	70.1	70.1	80	63.6	0	3	68	0.00	29.857 
01:15	70.1	70.1	70.1	80	63.6	0	2	68	0.00	29.850 
01:20	70.1	70.1	70.1	81	64.0	0	2	68	0.00	29.850 
01:25	69.9	69.9	69.9	80	63.4	1	4	68	0.00	29.850 
01:30	69.9	69.9	69.9	81	63.8	0	2	68	0.00	29.839 
01:35	69.8	69.8	69.8	81	63.7	0	1	68	0.00	29.839 
01:40	69.6	69.6	69.6	81	63.5	0	1	68	0.00	29.839 
01:45	69.4	69.4	69.4	81	63.3	0	1	68	0.00	29.844 
01:50	69.3	69.3	69.3	82	63.6	0	0	---	0.00	29.844 
01:55	69.1	69.1	69.1	83	63.7	0	0	---	0.00	29.844 
02:00	68.9	68.9	68.9	84	63.9	0	1	68	0.00	29.840 
02:05	68.9	68.9	68.9	84	63.9	0	0	---	0.00	29.840 
02:10	68.8	68.8	68.8	85	64.1	0	0	---	0.00	29.840 
02:15	68.6	68.6	68.6	85	63.9	0	0	---	0.00	29.835 
02:20	68.4	68.4	68.4	85	63.7	0	0	---	0.00	29.835 
02:25	68.3	68.3	68.3	86	63.9	0	0	---	0.00	29.835 
02:30	68.1	68.1	68.1	86	63.7	0	0	---	0.00	29.831 
02:35	68.1	68.1	68.1	87	64.1	0	0	---	0.00	29.831 
02:40	67.9	67.9	67.9	87	63.9	0	0	---	0.00	29.831 
02:45	67.9	67.9	67.9	87	63.9	0	0	---	0.00	29.835 
02:50	67.8	67.8	67.8	87	63.8	0	0	---	0.00	29.835 
02:55	67.6	67.6	67.6	87	63.6	0	0	---	0.00	29.835 
03:00	67.6	67.6	67.6	87	63.6	0	2	68	0.00	29.838 
03:05	67.4	67.4	67.4	87	63.4	0	2	68	0.00	29.838 
03:10	67.3	67.3	67.3	87	63.3	0	0	---	0.00	29.838 
03:15	67.1	67.1	67.1	87	63.1	0	0	---	0.00	29.840 
03:20	66.9	66.9	66.9	87	62.9	0	0	---	0.00	29.840 
03:25	66.9	66.9	66.9	88	63.2	0	0	---	0.00	29.840 
03:30	66.8	66.8	66.8	88	63.1	0	0	---	0.00	29.841 
03:35	66.6	66.6	66.6	88	62.9	0	1	68	0.00	29.841 
03:40	66.6	66.6	66.6	88	62.9	0	0	---	0.00	29.841 
03:45	66.4	66.4	66.4	88	62.7	0	0	---	0.00	29.843 
03:50	66.4	66.4	66.4	88	62.7	0	1	68	0.00	29.843 
03:55	66.3	66.3	66.3	89	63.0	0	0	---	0.00	29.843 
04:00	66.3	66.3	66.3	89	63.0	0	0	---	0.00	29.845 
04:05	66.1	66.1	66.1	89	62.8	0	0	---	0.00	29.845 
04:10	66.0	66.0	66.0	89	62.7	0	0	---	0.00	29.845 
04:15	65.8	65.8	65.8	89	62.5	0	0	---	0.00	29.845 
04:20	65.6	65.6	65.6	89	62.3	0	0	---	0.00	29.845 
04:25	65.6	65.6	65.6	90	62.6	0	0	---	0.00	29.845 
04:30	65.5	65.5	65.5	90	62.5	0	0	---	0.00	29.840 
04:35	65.5	65.5	65.5	90	62.5	0	1	68	0.00	29.840 
04:40	65.5	65.5	65.5	91	62.8	0	0	---	0.00	29.840 
04:45	65.3	65.3	65.3	91	62.6	0	0	---	0.00	29.842 
04:50	65.3	65.3	65.3	91	62.6	0	0	---	0.00	29.842 
04:55	65.2	65.2	65.2	91	62.5	0	0	---	0.00	29.842 
05:00	65.0	65.0	65.0	91	62.3	0	0	---	0.00	29.849 
05:05	64.8	64.8	64.8	91	62.1	0	0	---	0.00	29.849 
05:10	64.8	64.8	64.8	91	62.1	0	0	---	0.00	29.849 
05:15	64.7	64.7	64.7	91	62.0	0	0	---	0.00	29.848 
05:20	64.5	64.5	64.5	91	61.8	0	0	---	0.00	29.848 
05:25	64.3	64.3	64.3	92	61.9	0	0	---	0.00	29.848 
05:30	64.3	64.3	64.3	92	61.9	0	0	---	0.00	29.852 
05:35	64.5	64.5	64.5	92	62.1	0	0	---	0.00	29.852 
05:40	64.5	64.5	64.5	92	62.1	0	0	---	0.00	29.852 
05:45	64.5	64.5	64.5	92	62.1	0	1	68	0.00	29.856 
05:50	64.7	64.7	64.7	92	62.3	0	1	68	0.00	29.856 
05:55	64.5	64.5	64.5	92	62.1	0	0	---	0.00	29.856 
06:00	64.5	64.5	64.5	92	62.1	0	0	---	0.00	29.845 
06:05	64.5	64.5	64.5	93	62.4	0	1	68	0.00	29.845 
06:10	64.5	64.5	64.5	93	62.4	0	1	68	0.00	29.845 
06:15	64.3	64.3	64.3	93	62.2	0	0	---	0.00	29.852 
06:20	64.3	64.3	64.3	93	62.2	0	0	---	0.00	29.852 
06:25	64.3	64.3	64.3	93	62.2	0	1	68	0.00	29.852 
06:30	64.5	64.5	64.5	93	62.4	0	1	68	0.00	29.857 
06:35	64.5	64.5	64.5	93	62.4	0	1	68	0.00	29.857 
06:40	64.5	64.5	64.5	93	62.4	0	1	68	0.00	29.857 
06:45	64.5	64.5	64.5	93	62.4	0	0	---	0.00	29.857 
06:50	64.5	64.5	64.5	93	62.4	0	0	---	0.00	29.857 
06:55	64.7	64.7	64.7	93	62.6	0	0	---	0.00	29.857 
07:00	64.8	64.8	64.8	93	62.7	0	0	---	0.00	29.859 
07:05	65.0	65.0	65.0	93	62.9	0	0	---	0.00	29.859 
07:10	65.2	65.2	65.2	93	63.1	0	0	---	0.00	29.859 
07:15	65.3	65.3	65.3	93	63.2	0	0	---	0.00	29.869 
07:20	65.6	65.6	65.6	93	63.5	0	0	---	0.00	29.869 
07:25	65.8	65.8	65.8	93	63.7	0	0	---	0.00	29.869 
07:30	66.0	66.0	66.0	93	63.9	0	0	---	0.00	29.870 
07:35	66.1	66.1	66.1	93	64.0	0	0	---	0.00	29.870 
07:40	66.4	66.4	66.4	93	64.3	0	0	---	0.00	29.870 
07:45	66.8	66.8	66.8	93	64.7	0	0	---	0.00	29.868 
07:50	67.6	67.6	67.6	93	65.5	0	3	338	0.00	29.868 
07:55	68.3	68.3	68.3	92	65.9	0	2	338	0.00	29.868 
08:00	68.9	68.9	68.9	91	66.2	0	2	338	0.00	29.860 
08:05	69.8	69.8	69.8	90	66.7	0	1	338	0.00	29.860 
08:10	70.6	70.6	70.6	88	66.9	0	1	338	0.00	29.860 
08:15	71.6	71.6	71.6	87	67.5	0	1	338	0.00	29.853 
08:20	72.1	72.1	72.1	85	67.3	0	1	338	0.00	29.853 
08:25	72.1	72.1	72.1	85	67.3	0	0	---	0.00	29.853 
08:30	72.1	72.1	72.1	85	67.3	0	0	---	0.00	29.853 
08:35	72.1	72.1	72.1	84	67.0	0	1	338	0.00	29.853 
08:40	72.1	72.1	72.1	85	67.3	0	0	---	0.00	29.853 
08:45	72.7	72.7	72.7	85	67.9	0	1	338	0.00	29.857 
08:50	73.3	73.3	73.3	84	68.2	0	0	---	0.00	29.857 
08:55	73.9	73.9	73.9	83	68.4	0	1	338	0.00	29.857 
09:00	74.6	74.6	74.6	82	68.7	0	3	90	0.00	29.853 
09:05	75.4	75.4	76.1	80	68.8	0	0	---	0.00	29.853 
09:10	76.1	76.1	77.2	79	69.1	0	0	---	0.00	29.853 
09:15	77.0	77.0	78.6	79	70.0	0	0	---	0.00	29.857 
09:20	77.7	77.7	79.7	77	69.9	0	0	---	0.00	29.857 
09:25	77.7	77.7	79.7	75	69.1	0	0	---	0.00	29.857 
09:30	77.6	77.6	79.6	75	69.0	0	0	---	0.00	29.859 
09:35	77.2	77.2	79.0	76	69.0	0	0	---	0.00	29.859 
09:40	77.2	77.2	79.0	77	69.4	0	0	---	0.00	29.859 
09:45	77.2	77.2	79.0	77	69.4	0	0	---	0.00	29.863 
09:50	77.4	77.4	79.3	76	69.2	0	0	---	0.00	29.863 
09:55	77.6	77.6	79.6	77	69.8	0	0	---	0.00	29.863 
10:00	77.7	77.7	79.7	76	69.5	0	0	---	0.00	29.862 
10:05	77.7	77.7	79.7	75	69.1	0	0	---	0.00	29.862 
10:10	78.1	78.1	80.4	76	69.9	0	2	90	0.00	29.862 
10:15	79.2	79.2	82.1	75	70.6	0	2	90	0.00	29.856 
10:20	80.5	80.5	84.1	72	70.6	0	4	90	0.00	29.856 
10:25	81.4	81.4	85.3	70	70.7	0	1	90	0.00	29.856 
10:30	82.2	82.2	86.6	69	71.0	0	3	90	0.00	29.857 
10:35	82.2	82.2	86.1	67	70.1	0	2	90	0.00	29.857 
10:40	82.0	82.0	86.0	68	70.4	0	2	90	0.00	29.857 
10:45	82.0	82.0	86.2	69	70.8	1	3	90	0.00	29.850 
10:50	82.2	82.2	86.4	68	70.6	1	4	90	0.00	29.850 
10:55	82.6	82.6	87.1	68	70.9	0	2	90	0.00	29.850 
11:00	83.0	83.0	87.9	68	71.3	0	2	90	0.00	29.848 
11:05	83.2	83.2	88.2	68	71.5	0	1	68	0.00	29.848 
11:10	83.8	83.8	88.6	65	70.7	0	1	68	0.00	29.848 
11:15	84.0	84.0	88.4	63	70.0	1	4	315	0.00	29.848 
11:20	84.3	84.3	88.6	62	69.8	1	4	248	0.00	29.848 
11:25	84.7	84.7	89.6	63	70.7	1	3	112	0.00	29.848 
11:30	84.9	84.9	89.7	62	70.4	0	3	112	0.00	29.848 
11:35	84.7	84.7	88.7	60	69.2	1	3	112	0.00	29.848 
11:40	84.7	84.7	89.0	61	69.7	0	2	338	0.00	29.848 
11:45	84.7	84.7	89.3	62	70.2	0	3	338	0.00	29.856 
11:50	84.9	84.9	89.4	61	69.9	0	3	0	0.00	29.856 
11:55	84.9	84.9	88.5	58	68.4	1	4	292	0.00	29.856 
12:00	84.7	84.7	88.1	58	68.3	1	5	292	0.00	29.860 
12:05	84.9	84.9	88.8	59	68.9	1	2	292	0.00	29.860 
12:10	85.1	85.1	89.1	59	69.1	0	3	292	0.00	29.860 
12:15	85.5	85.5	89.5	58	69.0	1	5	315	0.00	29.861 
12:20	85.9	85.9	90.9	60	70.4	1	3	45	0.00	29.861 
12:25	85.9	85.9	90.2	58	69.4	1	4	90	0.00	29.861 
12:30	85.7	85.7	89.2	56	68.2	1	4	90	0.00	29.858 
12:35	85.1	85.1	88.8	58	68.6	1	3	90	0.00	29.858 
12:40	85.1	85.1	88.5	57	68.1	1	4	90	0.00	29.858 
12:45	85.5	85.5	89.5	58	69.0	1	3	292	0.00	29.859 
12:50	85.5	85.5	88.9	56	68.0	1	3	292	0.00	29.859 
12:55	85.5	85.5	89.2	57	68.5	0	2	292	0.00	29.859 
13:00	85.5	85.5	89.2	57	68.5	1	4	292	0.00	29.852 
13:05	85.9	85.9	89.9	57	68.9	0	2	292	0.00	29.852 
13:10	86.1	86.1	89.9	56	68.5	1	4	292	0.00	29.852 
13:15	86.1	86.1	89.6	55	68.0	0	2	270	0.00	29.849 
13:20	86.1	86.1	89.9	56	68.5	0	3	338	0.00	29.849 
13:25	85.7	85.7	89.2	56	68.2	0	3	90	0.00	29.849 
13:30	85.1	85.1	88.5	57	68.1	0	2	90	0.00	29.847 
13:35	84.5	84.5	87.8	58	68.1	1	3	90	0.00	29.847 
13:40	84.5	84.5	88.4	60	69.1	0	2	90	0.00	29.847 
13:45	85.1	85.1	89.8	61	70.1	0	2	90	0.00	29.848 
13:50	85.7	85.7	90.2	59	69.7	1	3	90	0.00	29.848 
13:55	85.9	85.9	90.6	59	69.9	0	2	90	0.00	29.848 
14:00	85.5	85.5	89.5	58	69.0	1	5	90	0.00	29.850 
14:05	84.5	84.5	87.8	58	68.1	1	4	45	0.00	29.850 
14:10	84.0	84.0	87.3	59	68.1	1	3	112	0.00	29.850 
14:15	84.0	84.0	88.1	62	69.5	1	4	90	0.00	29.848 
14:20	84.1	84.1	88.5	63	70.1	1	4	90	0.00	29.848 
14:25	84.5	84.5	89.3	63	70.5	0	2	90	0.00	29.848 
14:30	84.7	84.7	89.6	63	70.7	1	3	90	0.00	29.853 
14:35	84.9	84.9	90.4	64	71.3	1	3	90	0.00	29.853 
14:40	84.9	84.9	90.0	63	70.9	1	4	68	0.00	29.853 
14:45	84.1	84.1	88.5	63	70.1	2	5	270	0.00	29.861 
14:50	82.2	82.2	84.9	61	67.4	2	6	270	0.00	29.861 
14:55	79.8	79.8	82.1	65	67.0	2	6	292	0.00	29.861 
15:00	78.5	78.5	80.7	70	67.9	1	2	292	0.00	29.862 
15:05	77.7	77.7	79.7	73	68.3	0	1	292	0.00	29.862 
15:10	77.2	77.2	79.0	75	68.6	0	1	292	0.00	29.862 
15:15	77.4	77.4	79.3	77	69.6	0	1	292	0.00	29.864 
15:20	77.6	77.6	79.6	78	70.2	0	1	292	0.00	29.864 
15:25	77.7	77.7	79.7	77	69.9	0	1	292	0.00	29.864 
15:30	78.3	78.3	80.7	77	70.5	0	2	292	0.00	29.854 
15:35	78.8	78.8	81.6	77	71.0	1	4	90	0.00	29.854 
15:40	79.6	79.6	83.0	76	71.3	1	3	90	0.00	29.854 
15:45	80.3	80.3	84.0	74	71.2	1	4	90	0.00	29.843 
15:50	80.5	80.5	84.1	72	70.6	1	6	90	0.00	29.843 
15:55	80.9	80.9	84.3	69	69.8	2	6	68	0.00	29.843 
16:00	80.7	80.7	84.3	71	70.4	3	4	68	0.00	29.851 
16:05	80.9	80.9	84.3	69	69.8	2	4	90	0.00	29.851 
16:10	80.9	80.9	84.0	67	68.9	3	7	90	0.00	29.851 
16:15	81.1	81.1	84.6	69	69.9	2	5	90	0.00	29.852 
16:20	81.1	81.1	85.0	71	70.8	2	9	112	0.00	29.852 
16:25	80.9	80.9	85.0	73	71.4	2	7	68	0.00	29.852 
16:30	80.9	80.9	85.1	74	71.8	2	6	90	0.00	29.841 
16:35	81.2	81.2	85.5	73	71.7	2	7	90	0.00	29.841 
16:40	81.1	81.1	85.3	73	71.6	3	7	90	0.00	29.841 
16:45	80.7	80.7	84.6	73	71.2	2	5	90	0.00	29.830 
16:50	80.7	80.7	84.6	73	71.2	2	5	90	0.00	29.830 
16:55	80.7	80.7	85.1	76	72.4	2	6	90	0.00	29.830 
17:00	81.1	81.1	85.3	73	71.6	2	7	90	0.00	29.822 
17:05	81.2	81.2	85.5	73	71.7	3	7	68	0.00	29.822 
17:10	81.1	81.1	85.3	73	71.6	1	6	68	0.00	29.822 
17:15	80.9	80.9	85.0	73	71.4	1	5	135	0.00	29.829 
17:20	80.3	80.3	84.0	74	71.2	1	4	68	0.00	29.829 
17:25	79.2	79.2	82.0	73	69.8	2	5	68	0.00	29.829 
17:30	77.2	77.2	79.0	77	69.4	2	11	338	0.00	29.847 
17:35	76.3	76.3	77.5	79	69.3	3	7	90	0.00	29.847 
17:40	76.0	76.0	77.0	80	69.4	4	9	90	0.00	29.847 
17:45	75.6	75.6	76.2	82	69.7	3	7	112	0.00	29.838 
17:50	75.3	75.3	75.8	82	69.4	3	6	90	0.00	29.838 
17:55	75.1	75.1	75.5	82	69.2	2	6	90	0.00	29.838 
18:00	75.1	75.1	75.2	84	69.9	1	5	90	0.03	29.830 
18:05	74.7	74.7	74.7	84	69.5	0	2	90	0.05	29.830 
18:10	74.2	74.2	74.2	86	69.7	1	2	90	0.06	29.830 
18:15	73.5	73.5	73.5	88	69.7	1	3	68	0.07	29.855 
18:20	73.0	73.0	73.0	89	69.6	1	4	68	0.09	29.855 
18:25	72.5	72.5	72.5	90	69.4	0	3	338	0.04	29.855 
18:30	72.5	72.5	72.5	91	69.7	1	4	0	0.10	29.825 
18:35	72.3	72.3	72.3	92	69.8	2	6	90	0.00	29.825 
18:40	72.5	72.5	72.5	92	70.0	0	2	68	0.00	29.825 
18:45	72.5	72.5	72.5	92	70.0	1	4	90	0.00	29.828 
18:50	72.5	72.5	72.5	93	70.4	0	4	90	0.00	29.828 
18:55	72.7	72.7	72.7	93	70.6	1	3	90	0.00	29.828 
19:00	72.7	72.7	72.7	93	70.6	1	6	90	0.00	29.835 
19:05	72.7	72.7	72.7	93	70.6	2	5	45	0.00	29.835 
19:10	72.5	72.5	72.5	93	70.4	0	2	45	0.00	29.835 
19:15	72.7	72.7	72.7	94	70.9	0	0	---	0.00	29.835 
19:20	72.8	72.8	72.8	94	71.0	0	1	45	0.00	29.835 
19:25	73.0	73.0	73.0	94	71.2	0	1	45	0.00	29.835 
19:30	73.0	73.0	73.0	93	70.8	0	2	45	0.00	29.834 
19:35	73.0	73.0	73.0	93	70.8	0	1	45	0.00	29.834 
19:40	72.8	72.8	72.8	93	70.7	0	1	45	0.00	29.834 
19:45	72.8	72.8	72.8	93	70.7	0	1	45	0.00	29.830 
19:50	72.7	72.7	72.7	93	70.6	0	2	45	0.00	29.830 
19:55	72.3	72.3	72.3	93	70.2	0	0	---	0.00	29.830 
20:00	72.3	72.3	72.3	93	70.2	0	1	45	0.00	29.842 
20:05	72.3	72.3	72.3	93	70.2	0	0	---	0.00	29.842 
20:10	72.3	72.3	72.3	93	70.2	0	0	---	0.00	29.842 
20:15	72.5	72.5	72.5	93	70.4	0	0	---	0.00	29.840 
20:20	72.5	72.5	72.5	93	70.4	0	1	45	0.01	29.840 
20:25	72.3	72.3	72.3	93	70.2	0	0	---	0.00	29.840 
20:30	72.3	72.3	72.3	93	70.2	0	0	---	0.01	29.852 
20:35	72.3	72.3	72.3	93	70.2	0	1	45	0.00	29.852 
20:40	72.3	72.3	72.3	93	70.2	0	0	---	0.00	29.852 
20:45	72.3	72.3	72.3	94	70.5	0	1	45	0.00	29.862 
20:50	72.3	72.3	72.3	94	70.5	0	0	---	0.00	29.862 
20:55	72.3	72.3	72.3	94	70.5	0	0	---	0.00	29.862 
21:00	72.3	72.3	72.3	94	70.5	0	0	---	0.00	29.869 
21:05	72.3	72.3	72.3	94	70.5	0	0	---	0.00	29.869 
21:10	72.3	72.3	72.3	94	70.5	0	0	---	0.00	29.869 
21:15	72.3	72.3	72.3	94	70.5	0	0	---	0.00	29.851 
21:20	72.3	72.3	72.3	94	70.5	0	0	---	0.00	29.851 
21:25	72.3	72.3	72.3	94	70.5	0	0	---	0.00	29.851 
21:30	72.1	72.1	72.1	94	70.3	0	0	---	0.00	29.847 
21:35	72.1	72.1	72.1	94	70.3	0	0	---	0.00	29.847 
21:40	72.1	72.1	72.1	94	70.3	0	1	45	0.00	29.847 
21:45	72.0	72.0	72.0	94	70.2	0	0	---	0.00	29.841 
21:50	72.0	72.0	72.0	94	70.2	0	0	---	0.00	29.841 
21:55	71.8	71.8	71.8	94	70.0	0	0	---	0.00	29.841 
22:00	71.8	71.8	71.8	94	70.0	0	0	---	0.00	29.845 
22:05	71.6	71.6	71.6	94	69.8	0	0	---	0.00	29.845 
22:10	71.6	71.6	71.6	95	70.1	0	0	---	0.00	29.845 
22:15	71.6	71.6	71.6	95	70.1	0	0	---	0.00	29.847 
22:20	71.6	71.6	71.6	95	70.1	0	0	---	0.00	29.847 
22:25	71.6	71.6	71.6	95	70.1	0	0	---	0.00	29.847 
22:30	71.6	71.6	71.6	95	70.1	0	0	---	0.00	29.854 
22:35	71.6	71.6	71.6	95	70.1	0	0	---	0.00	29.854 
22:40	71.6	71.6	71.6	95	70.1	0	0	---	0.00	29.854 
22:45	71.6	71.6	71.6	95	70.1	0	0	---	0.00	29.860 
22:50	71.6	71.6	71.6	95	70.1	0	0	---	0.00	29.860 
22:55	71.6	71.6	71.6	95	70.1	0	1	45	0.00	29.860 
23:00	71.6	71.6	71.6	95	70.1	0	0	---	0.00	29.861 
23:05	71.5	71.5	71.5	95	70.0	0	1	45	0.00	29.861 
23:10	71.5	71.5	71.5	95	70.0	0	0	---	0.00	29.861 
23:15	71.3	71.3	71.3	95	69.8	0	0	---	0.00	29.862 
23:20	71.1	71.1	71.1	95	69.6	0	0	---	0.00	29.862 
23:25	70.9	70.9	70.9	95	69.4	0	0	---	0.00	29.862 
23:30	70.8	70.8	70.8	95	69.3	0	0	---	0.00	29.851 
23:35	70.8	70.8	70.8	95	69.3	0	0	---	0.00	29.851 
23:40	70.6	70.6	70.6	95	69.1	0	0	---	0.00	29.851 
23:45	70.4	70.4	70.4	95	68.9	0	0	---	0.00	29.844 
23:50	70.3	70.3	70.3	95	68.8	0	0	---	0.00	29.844 
23:55	70.1	70.1	70.1	95	68.6	0	1	45	0.00	29.844 

CoCoRaHS
IN-AL-39
A2 Web Hosting
Creative Commons License
GoDaddy
search engine by freefind advanced

loaded 2018-11-16 11:28:32 • last modified 2010-11-18 10:43:29
Privacy PolicyDisclaimer
• wx.awcolley.com is powered by PmWiki v.2002016 •
• all content (unless otherwise noted) © 2018 A W Colley